createdAt,value
2017-05-20T04:43:39.275Z,11.91
2017-05-20T04:44:04.741Z,11.94
2017-05-20T04:44:30.212Z,11.94
2017-05-20T04:44:55.677Z,12.03
2017-05-20T04:45:21.187Z,12
2017-05-20T04:45:46.645Z,11.99
2017-05-20T04:46:12.115Z,12.06
2017-05-20T04:46:37.575Z,12.06
2017-05-20T04:47:03.033Z,12.04
2017-05-20T04:47:28.582Z,12.1
2017-05-20T04:47:54.000Z,12.07
2017-05-20T04:48:19.480Z,12.13
2017-05-20T04:48:44.958Z,12.1
2017-05-20T04:49:10.427Z,12.2
2017-05-20T04:49:35.885Z,12.18
2017-05-20T04:50:01.424Z,12.18
2017-05-20T04:50:26.881Z,12.17
2017-05-20T04:50:52.344Z,12.15
2017-05-20T04:51:17.808Z,12.21
2017-05-20T04:51:43.269Z,12.25
2017-05-20T04:52:08.739Z,12.24
2017-05-20T04:52:34.234Z,12.31
2017-05-20T04:52:59.685Z,12.32
2017-05-20T04:53:25.170Z,12.29
2017-05-20T04:53:50.631Z,12.28
2017-05-20T04:54:16.128Z,12.36
2017-05-20T04:54:41.582Z,12.32
2017-05-20T04:55:07.071Z,12.36
2017-05-20T04:55:32.527Z,12.39
2017-05-20T04:55:57.987Z,12.4
2017-05-20T04:56:23.441Z,12.36
2017-05-20T04:56:48.950Z,12.35
2017-05-20T04:57:14.407Z,12.36
2017-05-20T04:57:39.866Z,12.36
2017-05-20T04:58:05.332Z,12.39
2017-05-20T04:58:30.768Z,12.32
2017-05-20T04:58:56.230Z,12.4
2017-05-20T04:59:21.684Z,12.47
2017-05-20T04:59:47.174Z,12.46
2017-05-20T05:00:12.629Z,12.53
2017-05-20T05:00:38.116Z,12.54
2017-05-20T05:01:03.627Z,12.53
2017-05-20T05:01:29.081Z,12.46
2017-05-20T05:01:54.550Z,12.49
2017-05-20T05:02:20.051Z,12.6
2017-05-20T05:02:45.591Z,12.58
2017-05-20T05:03:11.059Z,12.64
2017-05-20T05:03:36.551Z,12.58
2017-05-20T05:04:02.035Z,12.58
2017-05-20T05:04:27.532Z,12.65
2017-05-20T05:04:52.958Z,12.68
2017-05-20T05:05:18.420Z,12.67
2017-05-20T05:05:43.955Z,12.72
2017-05-20T05:06:09.434Z,12.64
2017-05-20T05:06:34.961Z,12.72
2017-05-20T05:07:00.488Z,12.64
2017-05-20T05:07:25.927Z,12.68
2017-05-20T05:07:51.398Z,12.67
2017-05-20T05:08:16.910Z,12.72
2017-05-20T05:08:42.418Z,12.72
2017-05-20T05:09:07.938Z,12.68
2017-05-20T05:09:33.430Z,12.73
2017-05-20T05:09:58.924Z,12.75
2017-05-20T05:10:24.401Z,12.7
2017-05-20T05:10:49.844Z,12.76
2017-05-20T05:11:15.339Z,12.7
2017-05-20T05:11:40.833Z,12.68
2017-05-20T05:12:06.318Z,12.7
2017-05-20T05:12:31.810Z,12.7
2017-05-20T05:12:57.298Z,12.73
2017-05-20T05:13:22.793Z,12.8
2017-05-20T05:13:48.293Z,12.72
2017-05-20T05:14:13.759Z,12.65
2017-05-20T05:14:39.218Z,12.67
2017-05-20T05:15:04.683Z,12.8
2017-05-20T05:15:30.154Z,12.73
2017-05-20T05:15:55.613Z,12.76
2017-05-20T05:16:21.094Z,12.76
2017-05-20T05:16:46.570Z,12.79
2017-05-20T05:17:12.048Z,12.82
2017-05-20T05:17:37.519Z,12.82
2017-05-20T05:18:03.010Z,12.87
2017-05-20T05:18:28.468Z,12.85
2017-05-20T05:18:53.970Z,12.82
2017-05-20T05:19:19.443Z,12.86
2017-05-20T05:19:44.874Z,12.93
2017-05-20T05:20:10.368Z,12.97
2017-05-20T05:20:35.857Z,12.95
2017-05-20T05:21:01.314Z,12.87
2017-05-20T05:21:26.816Z,12.9
2017-05-20T05:21:52.268Z,12.97
2017-05-20T05:22:17.777Z,13.04
2017-05-20T05:22:43.269Z,13.05
2017-05-20T05:23:08.734Z,13.08
2017-05-20T05:23:34.223Z,13.08
2017-05-20T05:23:59.724Z,13.09
2017-05-20T05:24:25.220Z,13.04
2017-05-20T05:24:50.672Z,13.09
2017-05-20T05:25:16.150Z,13.08
2017-05-20T05:25:41.606Z,13.16
2017-05-20T05:26:07.142Z,13.22
2017-05-20T05:26:32.621Z,13.13
2017-05-20T05:26:58.103Z,13.25
2017-05-20T05:27:23.587Z,13.23
2017-05-20T05:27:49.032Z,13.18
2017-05-20T05:28:14.510Z,13.28
2017-05-20T05:28:40.003Z,13.22
2017-05-20T05:29:05.463Z,13.3
2017-05-20T05:29:30.919Z,13.31
2017-05-20T05:29:56.380Z,13.25
2017-05-20T05:30:21.836Z,13.35
2017-05-20T05:30:47.298Z,13.33
2017-05-20T05:31:12.781Z,13.27
2017-05-20T05:31:38.240Z,13.42
2017-05-20T05:32:03.715Z,13.44
2017-05-20T05:32:29.157Z,13.38
2017-05-20T05:32:54.645Z,13.41
2017-05-20T05:33:20.134Z,13.44
2017-05-20T05:33:45.619Z,13.46
2017-05-20T05:34:11.043Z,13.44
2017-05-20T05:34:36.565Z,13.46
2017-05-20T05:35:02.036Z,13.35
2017-05-20T05:35:27.548Z,13.47
2017-05-20T05:35:53.022Z,13.46
2017-05-20T05:36:18.488Z,13.42
2017-05-20T05:36:43.951Z,13.38
2017-05-20T05:37:09.448Z,13.39
2017-05-20T05:37:34.937Z,13.41
2017-05-20T05:38:00.462Z,13.41
2017-05-20T05:38:25.882Z,13.42
2017-05-20T05:38:51.382Z,13.49
2017-05-20T05:39:16.842Z,13.42
2017-05-20T05:39:42.309Z,13.47
2017-05-20T05:40:07.777Z,13.44
2017-05-20T05:40:33.285Z,13.52
2017-05-20T05:40:58.753Z,13.56
2017-05-20T05:41:24.208Z,13.67
2017-05-20T05:41:49.682Z,13.56
2017-05-20T05:42:15.154Z,13.62
2017-05-20T05:42:40.642Z,13.65
2017-05-20T05:43:06.120Z,13.71
2017-05-20T05:43:31.593Z,13.77
2017-05-20T05:43:57.074Z,13.7
2017-05-20T05:44:22.557Z,13.78
2017-05-20T05:44:48.010Z,13.79
2017-05-20T05:45:13.491Z,13.85
2017-05-20T05:45:38.960Z,13.83
2017-05-20T05:46:04.525Z,13.72
2017-05-20T05:46:29.927Z,13.83
2017-05-20T05:46:55.413Z,13.85
2017-05-20T05:47:20.910Z,13.79
2017-05-20T05:47:46.426Z,13.86
2017-05-20T05:48:11.883Z,13.9
2017-05-20T05:48:37.358Z,13.9
2017-05-20T05:49:02.817Z,13.9
2017-05-20T05:49:28.343Z,13.9
2017-05-20T05:49:53.833Z,13.85
2017-05-20T05:50:19.298Z,13.95
2017-05-20T05:50:44.855Z,13.89
2017-05-20T05:51:10.277Z,13.92
2017-05-20T05:51:35.759Z,13.87
2017-05-20T05:52:01.275Z,13.87
2017-05-20T05:52:26.767Z,13.89
2017-05-20T05:52:52.266Z,13.9
2017-05-20T05:53:17.739Z,13.92
2017-05-20T05:53:43.209Z,13.93
2017-05-20T05:54:08.656Z,13.99
2017-05-20T05:54:34.124Z,13.96
2017-05-20T05:54:59.593Z,13.99
2017-05-20T05:55:25.069Z,14.05
2017-05-20T05:55:50.523Z,14
2017-05-20T05:56:15.976Z,14.03
2017-05-20T05:56:41.491Z,14.07
2017-05-20T05:57:06.971Z,14.1
2017-05-20T05:57:32.469Z,14.11
2017-05-20T05:57:57.926Z,14.08
2017-05-20T05:58:23.411Z,14.1
2017-05-20T05:58:48.877Z,14.18
2017-05-20T05:59:14.332Z,14.15
2017-05-20T05:59:39.789Z,14.23
2017-05-20T06:00:05.302Z,14.25
2017-05-20T06:00:30.771Z,14.25
2017-05-20T06:00:56.289Z,14.25
2017-05-20T06:01:21.728Z,14.35
2017-05-20T06:01:47.185Z,14.36
2017-05-20T06:02:12.653Z,14.4
2017-05-20T06:02:38.147Z,14.32
2017-05-20T06:03:03.624Z,14.35
2017-05-20T06:03:29.090Z,14.47
2017-05-20T06:03:54.597Z,14.45
2017-05-20T06:04:20.066Z,14.44
2017-05-20T06:04:45.518Z,14.43
2017-05-20T06:05:11.002Z,14.5
2017-05-20T06:05:36.468Z,14.48
2017-05-20T06:06:01.985Z,14.48
2017-05-20T06:06:27.437Z,14.53
2017-05-20T06:06:52.889Z,14.65
2017-05-20T06:07:18.366Z,14.62
2017-05-20T06:07:43.828Z,14.66
2017-05-20T06:08:09.273Z,14.66
2017-05-20T06:08:34.756Z,14.62
2017-05-20T06:09:00.258Z,14.7
2017-05-20T06:09:25.706Z,14.68
2017-05-20T06:09:51.227Z,14.77
2017-05-20T06:10:16.719Z,14.59
2017-05-20T06:10:42.182Z,14.69
2017-05-20T06:11:07.654Z,14.73
2017-05-20T06:11:33.119Z,14.65
2017-05-20T06:11:58.590Z,14.68
2017-05-20T06:12:24.074Z,14.66
2017-05-20T06:12:49.561Z,14.65
2017-05-20T06:13:15.041Z,14.59
2017-05-20T06:13:40.535Z,14.65
2017-05-20T06:14:06.016Z,14.66
2017-05-20T06:14:31.492Z,14.66
2017-05-20T06:14:56.996Z,14.59
2017-05-20T06:15:22.510Z,14.59
2017-05-20T06:15:47.951Z,14.69
2017-05-20T06:16:13.452Z,14.72
2017-05-20T06:16:38.931Z,14.7
2017-05-20T06:17:04.418Z,14.72
2017-05-20T06:17:29.939Z,14.7
2017-05-20T06:17:55.612Z,14.73
2017-05-20T06:18:21.135Z,14.84
2017-05-20T06:18:46.595Z,14.81
2017-05-20T06:19:12.073Z,14.84
2017-05-20T06:19:37.555Z,14.86
2017-05-20T06:20:03.037Z,14.97
2017-05-20T06:20:28.495Z,14.94
2017-05-20T06:20:53.971Z,14.97
2017-05-20T06:21:19.438Z,14.99
2017-05-20T06:21:44.903Z,14.97
2017-05-20T06:22:10.399Z,15.03
2017-05-20T06:22:35.867Z,15.02
2017-05-20T06:23:01.331Z,15.15
2017-05-20T06:23:26.816Z,15.17
2017-05-20T06:23:52.307Z,15.19
2017-05-20T06:24:17.757Z,15.21
2017-05-20T06:24:43.262Z,15.15
2017-05-20T06:25:08.745Z,15.27
2017-05-20T06:25:34.219Z,15.35
2017-05-20T06:25:59.741Z,15.29
2017-05-20T06:26:25.243Z,15.21
2017-05-20T06:26:50.702Z,15.19
2017-05-20T06:27:16.169Z,15.25
2017-05-20T06:27:41.670Z,15.29
2017-05-20T06:28:07.152Z,15.21
2017-05-20T06:28:32.639Z,15.37
2017-05-20T06:28:58.091Z,15.35
2017-05-20T06:29:23.565Z,15.36
2017-05-20T06:29:49.039Z,15.39
2017-05-20T06:30:14.515Z,15.4
2017-05-20T06:30:39.984Z,15.42
2017-05-20T06:31:05.497Z,15.4
2017-05-20T06:31:30.978Z,15.4
2017-05-20T06:31:56.475Z,15.51
2017-05-20T06:32:21.953Z,15.51
2017-05-20T06:32:47.423Z,15.51
2017-05-20T06:33:12.921Z,15.51
2017-05-20T06:33:38.417Z,15.58
2017-05-20T06:34:03.899Z,15.62
2017-05-20T06:34:29.376Z,15.51
2017-05-20T06:34:54.869Z,15.44
2017-05-20T06:35:20.350Z,15.51
2017-05-20T06:35:45.830Z,15.49
2017-05-20T06:36:11.326Z,15.46
2017-05-20T06:36:36.823Z,15.54
2017-05-20T06:37:02.259Z,15.59
2017-05-20T06:37:27.810Z,15.52
2017-05-20T06:37:53.297Z,15.59
2017-05-20T06:38:18.791Z,15.59
2017-05-20T06:38:44.287Z,15.61
2017-05-20T06:39:09.795Z,15.62
2017-05-20T06:39:35.267Z,15.68
2017-05-20T06:40:00.754Z,15.68
2017-05-20T06:40:26.219Z,15.75
2017-05-20T06:40:51.689Z,15.72
2017-05-20T06:41:17.159Z,15.75
2017-05-20T06:41:42.637Z,15.79
2017-05-20T06:42:08.091Z,15.86
2017-05-20T06:42:33.581Z,15.76
2017-05-20T06:42:59.048Z,15.88
2017-05-20T06:43:24.515Z,15.83
2017-05-20T06:43:49.999Z,15.94
2017-05-20T06:44:15.474Z,15.84
2017-05-20T06:44:40.935Z,15.9
2017-05-20T06:45:06.414Z,15.9
2017-05-20T06:45:31.891Z,15.94
2017-05-20T06:45:57.384Z,16.05
2017-05-20T06:46:22.858Z,15.91
2017-05-20T06:46:48.333Z,16.02
2017-05-20T06:47:13.782Z,16.04
2017-05-20T06:47:39.275Z,16.1
2017-05-20T06:48:27.117Z,16.12
2017-05-20T06:48:52.599Z,16.05
2017-05-20T06:49:18.085Z,16.12
2017-05-20T06:49:43.556Z,16.16
2017-05-20T06:50:09.023Z,16.16
2017-05-20T06:50:34.477Z,16.15
2017-05-20T06:50:59.950Z,16.16
2017-05-20T06:51:25.427Z,16.16
2017-05-20T06:51:50.886Z,16.2
2017-05-20T06:52:16.362Z,16.16
2017-05-20T06:52:41.848Z,16.21
2017-05-20T06:53:07.344Z,16.28
2017-05-20T06:53:32.814Z,16.26
2017-05-20T06:53:58.319Z,16.15
2017-05-20T06:54:23.783Z,16.24
2017-05-20T06:54:49.284Z,16.29
2017-05-20T06:55:14.756Z,16.33
2017-05-20T06:55:40.214Z,16.39
2017-05-20T06:56:05.708Z,16.41
2017-05-20T06:56:31.169Z,16.42
2017-05-20T06:56:56.631Z,16.43
2017-05-20T06:57:22.105Z,16.39
2017-05-20T06:57:47.588Z,16.39
2017-05-20T06:58:13.116Z,16.47
2017-05-20T06:58:38.623Z,16.5
2017-05-20T06:59:04.289Z,16.53
2017-05-20T06:59:29.887Z,16.46
2017-05-20T06:59:55.461Z,16.56
2017-05-20T07:00:20.970Z,16.5
2017-05-20T07:00:46.582Z,16.53
2017-05-20T07:01:12.050Z,16.49
2017-05-20T07:01:37.506Z,16.64
2017-05-20T07:02:02.993Z,16.65
2017-05-20T07:02:28.538Z,16.66
2017-05-20T07:02:54.002Z,16.61
2017-05-20T07:03:19.501Z,16.66
2017-05-20T07:03:45.004Z,16.72
2017-05-20T07:04:10.457Z,16.71
2017-05-20T07:04:35.920Z,16.74
2017-05-20T07:05:01.428Z,16.66
2017-05-20T07:05:26.941Z,16.83
2017-05-20T07:05:52.404Z,16.81
2017-05-20T07:06:17.876Z,16.83
2017-05-20T07:06:43.360Z,16.86
2017-05-20T07:07:08.861Z,16.87
2017-05-20T07:07:34.327Z,16.83
2017-05-20T07:07:59.789Z,16.84
2017-05-20T07:08:25.265Z,16.87
2017-05-20T07:08:50.780Z,16.84
2017-05-20T07:09:16.290Z,16.89
2017-05-20T07:09:41.769Z,16.96
2017-05-20T07:10:07.240Z,16.96
2017-05-20T07:10:32.726Z,16.93
2017-05-20T07:10:58.218Z,16.94
2017-05-20T07:11:23.708Z,17.02
2017-05-20T07:11:49.201Z,17.02
2017-05-20T07:12:14.685Z,17.02
2017-05-20T07:12:40.136Z,17.06
2017-05-20T07:13:05.617Z,17.01
2017-05-20T07:13:31.072Z,17.02
2017-05-20T07:13:56.551Z,17.01
2017-05-20T07:14:22.046Z,17.08
2017-05-20T07:14:47.517Z,17.05
2017-05-20T07:15:13.003Z,17.02
2017-05-20T07:15:38.466Z,17.09
2017-05-20T07:16:03.954Z,17.09
2017-05-20T07:16:29.446Z,17.09
2017-05-20T07:16:54.912Z,17.09
2017-05-20T07:17:20.396Z,17.08
2017-05-20T07:17:45.903Z,17.09
2017-05-20T07:18:11.382Z,17.09
2017-05-20T07:18:36.885Z,17.14
2017-05-20T07:19:02.397Z,17.16
2017-05-20T07:19:27.875Z,17.27
2017-05-20T07:19:53.368Z,17.2
2017-05-20T07:20:18.858Z,17.23
2017-05-20T07:20:44.349Z,17.22
2017-05-20T07:21:09.841Z,17.24
2017-05-20T07:21:35.320Z,17.29
2017-05-20T07:22:00.782Z,17.36
2017-05-20T07:22:26.256Z,17.3
2017-05-20T07:22:51.719Z,17.33
2017-05-20T07:23:17.199Z,17.36
2017-05-20T07:23:42.673Z,17.22
2017-05-20T07:24:08.156Z,17.29
2017-05-20T07:24:33.641Z,17.3
2017-05-20T07:24:59.098Z,17.31
2017-05-20T07:25:24.564Z,17.41
2017-05-20T07:25:50.056Z,17.34
2017-05-20T07:26:15.527Z,17.45
2017-05-20T07:26:41.004Z,17.41
2017-05-20T07:27:06.495Z,17.49
2017-05-20T07:27:31.997Z,17.59
2017-05-20T07:27:57.500Z,17.59
2017-05-20T07:28:22.989Z,17.64
2017-05-20T07:28:48.472Z,17.74
2017-05-20T07:29:13.938Z,17.76
2017-05-20T07:29:39.433Z,17.79
2017-05-20T07:30:04.899Z,17.85
2017-05-20T07:30:30.400Z,17.78
2017-05-20T07:30:55.878Z,17.9
2017-05-20T07:31:21.338Z,17.9
2017-05-20T07:31:46.828Z,17.92
2017-05-20T07:32:12.296Z,17.94
2017-05-20T07:32:37.806Z,17.9
2017-05-20T07:33:03.288Z,17.95
2017-05-20T07:33:28.776Z,17.86
2017-05-20T07:33:54.267Z,17.79
2017-05-20T07:34:19.713Z,17.8
2017-05-20T07:34:45.239Z,17.78
2017-05-20T07:35:10.739Z,17.7
2017-05-20T07:35:36.225Z,17.7
2017-05-20T07:36:01.705Z,17.64
2017-05-20T07:36:27.197Z,17.52
2017-05-20T07:36:52.652Z,17.54
2017-05-20T07:37:18.157Z,17.44
2017-05-20T07:37:43.650Z,17.45
2017-05-20T07:38:09.123Z,17.34
2017-05-20T07:38:34.594Z,17.34
2017-05-20T07:39:00.108Z,17.24
2017-05-20T07:39:25.566Z,17.22
2017-05-20T07:39:51.057Z,17.24
2017-05-20T07:40:16.565Z,17.2
2017-05-20T07:40:42.033Z,17.23
2017-05-20T07:41:07.532Z,17.24
2017-05-20T07:41:33.035Z,17.22
2017-05-20T07:41:58.509Z,17.23
2017-05-20T07:42:23.993Z,17.2
2017-05-20T07:42:49.490Z,17.15
2017-05-20T07:43:14.964Z,17.15
2017-05-20T07:43:40.428Z,17.15
2017-05-20T07:44:05.930Z,17.12
2017-05-20T07:44:31.413Z,17.12
2017-05-20T07:44:56.879Z,17.16
2017-05-20T07:45:22.362Z,17.19
2017-05-20T07:45:47.848Z,17.19
2017-05-20T07:46:13.330Z,17.26
2017-05-20T07:46:38.800Z,17.22
2017-05-20T07:47:04.276Z,17.24
2017-05-20T07:47:29.754Z,17.26
2017-05-20T07:47:55.246Z,17.41
2017-05-20T07:48:20.736Z,17.34
2017-05-20T07:48:46.223Z,17.33
2017-05-20T07:49:11.722Z,17.33
2017-05-20T07:49:37.256Z,17.31
2017-05-20T07:50:02.707Z,17.3
2017-05-20T07:50:28.211Z,17.36
2017-05-20T07:50:53.689Z,17.34
2017-05-20T07:51:19.190Z,17.49
2017-05-20T07:51:44.664Z,17.46
2017-05-20T07:52:10.135Z,17.45
2017-05-20T07:52:35.612Z,17.51
2017-05-20T07:53:01.099Z,17.59
2017-05-20T07:53:26.573Z,17.6
2017-05-20T07:53:52.060Z,17.6
2017-05-20T07:54:17.510Z,17.68
2017-05-20T07:54:42.982Z,17.7
2017-05-20T07:55:08.452Z,17.74
2017-05-20T07:55:33.931Z,17.82
2017-05-20T07:55:59.429Z,17.86
2017-05-20T07:56:24.930Z,17.9
2017-05-20T07:56:50.398Z,17.98
2017-05-20T07:57:15.873Z,18.07
2017-05-20T07:57:41.358Z,18.08
2017-05-20T07:58:06.832Z,18.07
2017-05-20T07:58:32.321Z,18.16
2017-05-20T07:58:57.843Z,18.22
2017-05-20T07:59:23.362Z,18.15
2017-05-20T07:59:48.824Z,18.18
2017-05-20T08:00:14.336Z,18.23
2017-05-20T08:00:39.794Z,18.26
2017-05-20T08:01:05.247Z,18.33
2017-05-20T08:01:30.692Z,18.34
2017-05-20T08:01:56.193Z,18.26
2017-05-20T08:02:21.665Z,18.28
2017-05-20T08:02:47.129Z,18.37
2017-05-20T08:03:12.610Z,18.37
2017-05-20T08:03:38.070Z,18.34
2017-05-20T08:04:03.533Z,18.35
2017-05-20T08:04:29.005Z,18.37
2017-05-20T08:04:54.475Z,18.4
2017-05-20T08:05:19.913Z,18.41
2017-05-20T08:05:45.400Z,18.44
2017-05-20T08:06:10.878Z,18.47
2017-05-20T08:06:36.343Z,18.43
2017-05-20T08:07:01.805Z,18.5
2017-05-20T08:07:27.307Z,18.55
2017-05-20T08:07:52.778Z,18.55
2017-05-20T08:08:18.245Z,18.52
2017-05-20T08:08:43.737Z,18.58
2017-05-20T08:09:09.197Z,18.62
2017-05-20T08:09:34.664Z,18.63
2017-05-20T08:10:00.167Z,18.68
2017-05-20T08:10:25.641Z,18.58
2017-05-20T08:10:51.126Z,18.7
2017-05-20T08:11:16.590Z,18.77
2017-05-20T08:11:42.072Z,18.77
2017-05-20T08:12:07.573Z,18.8
2017-05-20T08:12:33.038Z,18.86
2017-05-20T08:12:58.509Z,18.92
2017-05-20T08:13:24.023Z,18.83
2017-05-20T08:13:49.498Z,18.93
2017-05-20T08:14:15.004Z,18.99
2017-05-20T08:14:40.474Z,18.98
2017-05-20T08:15:05.951Z,18.89
2017-05-20T08:15:31.432Z,19
2017-05-20T08:15:56.889Z,18.93
2017-05-20T08:16:22.364Z,18.89
2017-05-20T08:16:47.827Z,18.95
2017-05-20T08:17:13.309Z,18.93
2017-05-20T08:17:38.810Z,18.98
2017-05-20T08:18:04.281Z,18.98
2017-05-20T08:18:29.759Z,19.02
2017-05-20T08:18:55.239Z,18.98
2017-05-20T08:19:20.726Z,18.99
2017-05-20T08:19:46.216Z,19
2017-05-20T08:20:11.670Z,19
2017-05-20T08:20:37.141Z,19.11
2017-05-20T08:21:02.642Z,19.14
2017-05-20T08:21:28.119Z,19.15
2017-05-20T08:21:53.580Z,19.24
2017-05-20T08:22:19.076Z,19.22
2017-05-20T08:22:44.543Z,19.26
2017-05-20T08:23:10.034Z,19.34
2017-05-20T08:23:35.504Z,19.29
2017-05-20T08:24:00.952Z,19.37
2017-05-20T08:24:26.410Z,19.27
2017-05-20T08:24:51.885Z,19.4
2017-05-20T08:25:17.406Z,19.39
2017-05-20T08:25:42.836Z,19.26
2017-05-20T08:26:08.311Z,19.24
2017-05-20T08:26:33.778Z,19.26
2017-05-20T08:26:59.246Z,19.34
2017-05-20T08:27:24.748Z,19.34
2017-05-20T08:27:50.216Z,19.26
2017-05-20T08:28:15.700Z,19.22
2017-05-20T08:28:41.196Z,19.3
2017-05-20T08:29:06.689Z,19.22
2017-05-20T08:29:32.152Z,19.31
2017-05-20T08:29:57.656Z,19.26
2017-05-20T08:30:23.150Z,19.29
2017-05-20T08:30:48.621Z,19.29
2017-05-20T08:31:14.098Z,19.39
2017-05-20T08:31:39.576Z,19.39
2017-05-20T08:32:05.040Z,19.36
2017-05-20T08:32:30.530Z,19.33
2017-05-20T08:32:56.002Z,19.31
2017-05-20T08:33:21.475Z,19.26
2017-05-20T08:33:46.964Z,19.34
2017-05-20T08:34:12.423Z,19.24
2017-05-20T08:34:37.869Z,19.26
2017-05-20T08:35:03.356Z,19.22
2017-05-20T08:35:28.817Z,19.22
2017-05-20T08:35:54.281Z,19.24
2017-05-20T08:36:19.744Z,19.14
2017-05-20T08:36:45.224Z,19.08
2017-05-20T08:37:10.728Z,19.08
2017-05-20T08:37:36.195Z,19.02
2017-05-20T08:38:01.657Z,19.08
2017-05-20T08:38:27.137Z,18.96
2017-05-20T08:38:52.589Z,19
2017-05-20T08:39:18.053Z,18.98
2017-05-20T08:39:43.556Z,18.96
2017-05-20T08:40:08.990Z,18.86
2017-05-20T08:40:34.509Z,18.77
2017-05-20T08:40:59.954Z,18.74
2017-05-20T08:41:25.411Z,18.77
2017-05-20T08:41:50.863Z,18.73
2017-05-20T08:42:16.366Z,18.66
2017-05-20T08:42:41.802Z,18.63
2017-05-20T08:43:07.247Z,18.6
2017-05-20T08:43:32.736Z,18.62
2017-05-20T08:43:58.211Z,18.5
2017-05-20T08:44:23.700Z,18.5
2017-05-20T08:44:49.186Z,18.44
2017-05-20T08:45:14.662Z,18.4
2017-05-20T08:45:40.145Z,18.4
2017-05-20T08:46:05.614Z,18.44
2017-05-20T08:46:31.075Z,18.52
2017-05-20T08:46:56.535Z,18.52
2017-05-20T08:47:22.036Z,18.53
2017-05-20T08:47:47.485Z,18.55
2017-05-20T08:48:12.939Z,18.58
2017-05-20T08:48:38.433Z,18.58
2017-05-20T08:49:03.903Z,18.55
2017-05-20T08:49:29.356Z,18.55
2017-05-20T08:49:54.834Z,18.55
2017-05-20T08:50:20.349Z,18.62
2017-05-20T08:50:45.818Z,18.65
2017-05-20T08:51:11.315Z,18.59
2017-05-20T08:51:36.784Z,18.59
2017-05-20T08:52:02.268Z,18.58
2017-05-20T08:52:27.772Z,18.56
2017-05-20T08:52:53.237Z,18.55
2017-05-20T08:53:18.708Z,18.47
2017-05-20T08:53:44.201Z,18.43
2017-05-20T08:54:09.689Z,18.38
2017-05-20T08:54:35.151Z,18.37
2017-05-20T08:55:00.618Z,18.28
2017-05-20T08:55:26.102Z,18.23
2017-05-20T08:55:51.565Z,18.2
2017-05-20T08:56:17.049Z,18.15
2017-05-20T08:56:42.515Z,18.07
2017-05-20T08:57:07.986Z,18.08
2017-05-20T08:57:33.456Z,18.04
2017-05-20T08:57:58.903Z,18.05
2017-05-20T08:58:24.347Z,18.08
2017-05-20T08:58:49.819Z,18.13
2017-05-20T08:59:15.285Z,18.07
2017-05-20T08:59:40.759Z,18.08
2017-05-20T09:00:06.247Z,18.03
2017-05-20T09:00:31.698Z,18.19
2017-05-20T09:00:57.190Z,18.22
2017-05-20T09:01:22.678Z,18.28
2017-05-20T09:01:48.129Z,18.16
2017-05-20T09:02:13.613Z,18.13
2017-05-20T09:02:39.081Z,18.22
2017-05-20T09:03:04.559Z,18.2
2017-05-20T09:03:30.034Z,18.23
2017-05-20T09:03:55.512Z,18.1
2017-05-20T09:04:21.014Z,18.22
2017-05-20T09:04:46.471Z,18.2
2017-05-20T09:05:11.931Z,18.1
2017-05-20T09:05:37.417Z,18.16
2017-05-20T09:06:02.879Z,18.08
2017-05-20T09:06:28.354Z,18.19
2017-05-20T09:06:53.881Z,18.19
2017-05-20T09:07:19.382Z,18.23
2017-05-20T09:07:44.868Z,18.15
2017-05-20T09:08:10.345Z,18.07
2017-05-20T09:08:35.824Z,18.13
2017-05-20T09:09:01.298Z,18.07
2017-05-20T09:09:26.781Z,18.05
2017-05-20T09:09:52.296Z,18.13
2017-05-20T09:10:17.772Z,17.97
2017-05-20T09:10:43.320Z,18.07
2017-05-20T09:11:08.786Z,18.04
2017-05-20T09:11:34.270Z,17.95
2017-05-20T09:11:59.744Z,17.94
2017-05-20T09:12:25.199Z,17.97
2017-05-20T09:12:50.676Z,17.95
2017-05-20T09:13:16.145Z,17.89
2017-05-20T09:13:41.615Z,17.89
2017-05-20T09:14:07.090Z,17.89
2017-05-20T09:14:32.547Z,17.83
2017-05-20T09:14:58.063Z,17.87
2017-05-20T09:15:23.480Z,17.82
2017-05-20T09:15:49.011Z,17.8
2017-05-20T09:16:14.516Z,17.72
2017-05-20T09:16:39.983Z,17.78
2017-05-20T09:17:05.432Z,17.72
2017-05-20T09:17:30.868Z,17.72
2017-05-20T09:17:56.353Z,17.68
2017-05-20T09:18:21.817Z,17.67
2017-05-20T09:18:47.271Z,17.56
2017-05-20T09:19:12.777Z,17.56
2017-05-20T09:19:38.262Z,17.57
2017-05-20T09:20:03.716Z,17.6
2017-05-20T09:20:29.209Z,17.46
2017-05-20T09:20:54.662Z,17.48
2017-05-20T09:21:20.144Z,17.54
2017-05-20T09:21:45.609Z,17.52
2017-05-20T09:22:11.151Z,17.41
2017-05-20T09:22:36.660Z,17.49
2017-05-20T09:23:02.105Z,17.44
2017-05-20T09:23:27.574Z,17.45
2017-05-20T09:23:53.048Z,17.51
2017-05-20T09:24:18.513Z,17.46
2017-05-20T09:24:43.991Z,17.42
2017-05-20T09:25:09.447Z,17.51
2017-05-20T09:25:34.893Z,17.52
2017-05-20T09:26:00.363Z,17.59
2017-05-20T09:26:25.861Z,17.57
2017-05-20T09:26:51.326Z,17.72
2017-05-20T09:27:16.813Z,17.74
2017-05-20T09:27:42.265Z,17.8
2017-05-20T09:28:07.750Z,17.83
2017-05-20T09:28:33.226Z,17.8
2017-05-20T09:28:58.711Z,17.89
2017-05-20T09:29:24.211Z,17.92
2017-05-20T09:29:49.705Z,17.85
2017-05-20T09:30:15.202Z,17.86
2017-05-20T09:30:40.678Z,17.83
2017-05-20T09:31:06.155Z,17.83
2017-05-20T09:31:31.624Z,17.83
2017-05-20T09:31:57.080Z,17.87
2017-05-20T09:32:22.561Z,17.89
2017-05-20T09:32:48.032Z,17.87
2017-05-20T09:33:13.544Z,17.98
2017-05-20T09:33:39.034Z,18.03
2017-05-20T09:34:04.516Z,18
2017-05-20T09:34:29.994Z,18.07
2017-05-20T09:34:55.448Z,18.04
2017-05-20T09:35:20.914Z,18.15
2017-05-20T09:35:46.357Z,18.11
2017-05-20T09:36:11.837Z,18.07
2017-05-20T09:36:37.304Z,18.11
2017-05-20T09:37:02.811Z,18.22
2017-05-20T09:37:28.278Z,18.18
2017-05-20T09:37:53.779Z,18.07
2017-05-20T09:38:19.248Z,18.1
2017-05-20T09:38:44.725Z,18.05
2017-05-20T09:39:10.193Z,18.05
2017-05-20T09:39:35.685Z,18.18
2017-05-20T09:40:01.143Z,18.11
2017-05-20T09:40:26.612Z,18.1
2017-05-20T09:40:52.106Z,18.04
2017-05-20T09:41:17.687Z,18.07
2017-05-20T09:41:43.184Z,18.07
2017-05-20T09:42:08.627Z,18.2
2017-05-20T09:42:34.119Z,18.16
2017-05-20T09:42:59.597Z,18.23
2017-05-20T09:43:25.086Z,18.22
2017-05-20T09:43:50.564Z,18.33
2017-05-20T09:44:16.063Z,18.35
2017-05-20T09:44:41.586Z,18.4
2017-05-20T09:45:07.066Z,18.47
2017-05-20T09:45:32.599Z,18.5
2017-05-20T09:45:58.055Z,18.62
2017-05-20T09:46:23.535Z,18.65
2017-05-20T09:46:49.020Z,18.74
2017-05-20T09:47:14.493Z,18.86
2017-05-20T09:47:39.952Z,18.84
2017-05-20T09:48:05.426Z,18.98
2017-05-20T09:48:30.872Z,18.99
2017-05-20T09:48:56.343Z,19.07
2017-05-20T09:49:21.856Z,19.15
2017-05-20T09:49:47.329Z,19.19
2017-05-20T09:50:12.796Z,19.3
2017-05-20T09:50:38.288Z,19.44
2017-05-20T09:51:03.763Z,19.37
2017-05-20T09:51:29.252Z,19.51
2017-05-20T09:51:54.755Z,19.49
2017-05-20T09:52:20.227Z,19.67
2017-05-20T09:52:45.721Z,19.77
2017-05-20T09:53:11.196Z,19.76
2017-05-20T09:53:36.659Z,19.88
2017-05-20T09:54:02.160Z,19.96
2017-05-20T09:54:27.648Z,20
2017-05-20T09:54:53.117Z,20.02
2017-05-20T09:55:18.581Z,20.07
2017-05-20T09:55:44.079Z,20.09
2017-05-20T09:56:09.538Z,20.1
2017-05-20T09:56:35.013Z,20.09
2017-05-20T09:57:00.496Z,20.13
2017-05-20T09:57:26.002Z,20.03
2017-05-20T09:57:51.487Z,19.99
2017-05-20T09:58:16.969Z,19.95
2017-05-20T09:58:42.442Z,19.89
2017-05-20T09:59:07.910Z,19.77
2017-05-20T09:59:33.368Z,19.79
2017-05-20T09:59:58.820Z,19.79
2017-05-20T10:00:24.304Z,19.73
2017-05-20T10:00:49.781Z,19.59
2017-05-20T10:01:15.249Z,19.69
2017-05-20T10:01:40.751Z,19.59
2017-05-20T10:02:06.242Z,19.55
2017-05-20T10:02:31.712Z,19.49
2017-05-20T10:02:57.199Z,19.49
2017-05-20T10:03:22.692Z,19.49
2017-05-20T10:03:48.165Z,19.44
2017-05-20T10:04:13.630Z,19.45
2017-05-20T10:04:39.109Z,19.4
2017-05-20T10:05:04.582Z,19.27
2017-05-20T10:05:30.049Z,19.34
2017-05-20T10:05:55.549Z,19.22
2017-05-20T10:06:21.014Z,19.26
2017-05-20T10:06:46.500Z,19.33
2017-05-20T10:07:11.960Z,19.22
2017-05-20T10:07:37.439Z,19.27
2017-05-20T10:08:02.917Z,19.27
2017-05-20T10:08:28.394Z,19.22
2017-05-20T10:08:53.880Z,19.18
2017-05-20T10:09:19.370Z,19.26
2017-05-20T10:09:44.852Z,19.37
2017-05-20T10:10:10.324Z,19.37
2017-05-20T10:10:35.813Z,19.45
2017-05-20T10:11:01.294Z,19.4
2017-05-20T10:11:26.793Z,19.44
2017-05-20T10:11:52.254Z,19.54
2017-05-20T10:12:17.727Z,19.58
2017-05-20T10:12:43.181Z,19.66
2017-05-20T10:13:08.701Z,19.59
2017-05-20T10:13:34.114Z,19.76